createdAt,value
2023-11-30T00:01:27.150Z,22.98
2023-11-30T00:03:54.936Z,22.77
2023-11-30T00:06:21.918Z,21.63
2023-11-30T00:08:52.236Z,22.73
2023-11-30T00:11:20.581Z,21.75
2023-11-30T00:13:56.798Z,21.38
2023-11-30T00:16:26.006Z,21.17
2023-11-30T00:18:57.944Z,21.15
2023-11-30T00:21:24.880Z,19.85
2023-11-30T00:23:52.043Z,20.30
2023-11-30T00:26:18.918Z,20.08
2023-11-30T00:28:45.806Z,19.10
2023-11-30T00:31:12.873Z,18.80
2023-11-30T00:33:41.441Z,19.95
2023-11-30T00:36:09.879Z,20.63
2023-11-30T00:38:36.883Z,21.20
2023-11-30T00:41:04.997Z,21.83
2023-11-30T00:43:37.115Z,21.13
2023-11-30T00:46:09.889Z,21.70
2023-11-30T00:48:38.551Z,24.33
2023-11-30T00:51:12.632Z,22.40
2023-11-30T00:53:43.788Z,23.27
2023-11-30T00:56:15.645Z,24.33
2023-11-30T00:58:42.618Z,23.27
2023-11-30T01:01:09.815Z,23.25
2023-11-30T01:03:36.788Z,23.75
2023-11-30T01:06:03.878Z,23.50
2023-11-30T01:08:30.787Z,25.30
2023-11-30T01:10:57.937Z,24.63
2023-11-30T01:13:26.151Z,25.35
2023-11-30T01:15:53.093Z,23.77
2023-11-30T01:18:20.271Z,25.00
2023-11-30T01:20:47.304Z,23.52
2023-11-30T01:23:14.623Z,24.67
2023-11-30T01:25:41.723Z,26.42
2023-11-30T01:28:11.427Z,26.38
2023-11-30T01:30:47.518Z,27.40
2023-11-30T01:33:14.621Z,24.73
2023-11-30T01:35:48.285Z,25.17
2023-11-30T01:38:21.475Z,25.00
2023-11-30T01:40:51.368Z,24.67
2023-11-30T01:43:33.485Z,24.83
2023-11-30T01:46:03.785Z,24.90
2023-11-30T01:48:33.920Z,22.15
2023-11-30T01:51:07.178Z,25.48
2023-11-30T01:53:37.098Z,26.42
2023-11-30T01:56:14.182Z,27.30
2023-11-30T01:58:41.795Z,27.33
2023-11-30T02:01:16.195Z,26.60
2023-11-30T02:03:43.213Z,28.10
2023-11-30T02:06:10.411Z,25.92
2023-11-30T02:08:37.430Z,26.45
2023-11-30T02:11:04.428Z,26.13
2023-11-30T02:13:31.362Z,28.30
2023-11-30T02:16:01.372Z,26.90
2023-11-30T02:18:28.497Z,27.33
2023-11-30T02:20:56.974Z,25.75
2023-11-30T02:23:23.882Z,27.02
2023-11-30T02:25:50.757Z,28.08
2023-11-30T02:28:18.615Z,28.52
2023-11-30T02:30:47.924Z,29.63
2023-11-30T02:33:16.179Z,28.90
2023-11-30T02:35:43.257Z,29.55
2023-11-30T02:38:10.893Z,29.30
2023-11-30T02:40:38.874Z,32.42
2023-11-30T02:43:05.991Z,33.75
2023-11-30T02:45:33.164Z,33.15
2023-11-30T02:48:01.029Z,34.85
2023-11-30T02:50:32.240Z,36.03
2023-11-30T02:52:59.284Z,36.75
2023-11-30T02:55:26.402Z,35.58
2023-11-30T02:57:53.432Z,35.22
2023-11-30T03:00:20.514Z,34.22
2023-11-30T03:02:47.623Z,35.25
2023-11-30T03:05:33.899Z,34.28
2023-11-30T03:08:02.865Z,34.58
2023-11-30T03:10:29.811Z,37.08
2023-11-30T03:12:56.758Z,37.13
2023-11-30T03:15:24.527Z,35.85
2023-11-30T03:17:54.893Z,34.50
2023-11-30T03:20:25.550Z,36.33
2023-11-30T03:22:52.551Z,35.85
2023-11-30T03:25:19.533Z,37.80
2023-11-30T03:27:46.732Z,38.60
2023-11-30T03:30:13.989Z,41.08
2023-11-30T03:32:41.025Z,39.15
2023-11-30T03:35:08.058Z,37.70
2023-11-30T03:37:35.195Z,36.33
2023-11-30T03:40:02.135Z,33.88
2023-11-30T03:42:29.093Z,34.80
2023-11-30T03:44:56.556Z,32.75
2023-11-30T03:47:25.786Z,33.83
2023-11-30T03:50:00.348Z,34.05
2023-11-30T03:52:27.539Z,32.22
2023-11-30T03:54:57.365Z,32.28
2023-11-30T03:57:25.318Z,33.50
2023-11-30T03:59:53.627Z,34.28
2023-11-30T04:02:28.162Z,33.45
2023-11-30T04:04:55.414Z,39.05
2023-11-30T04:07:23.524Z,37.85
2023-11-30T04:09:53.529Z,36.83
2023-11-30T04:12:23.297Z,38.63
2023-11-30T04:14:51.579Z,39.78
2023-11-30T04:17:18.774Z,40.97
2023-11-30T04:19:46.351Z,40.08
2023-11-30T04:22:15.290Z,38.72
2023-11-30T04:24:42.472Z,39.92
2023-11-30T04:27:09.674Z,36.80
2023-11-30T04:29:36.750Z,35.42
2023-11-30T04:32:05.937Z,38.42
2023-11-30T04:34:35.378Z,33.63
2023-11-30T04:37:02.414Z,32.72
2023-11-30T04:39:31.842Z,33.15
2023-11-30T04:42:01.684Z,32.80
2023-11-30T04:44:32.311Z,31.98
2023-11-30T04:47:00.021Z,31.77
2023-11-30T04:49:27.123Z,33.50
2023-11-30T04:51:54.297Z,32.97
2023-11-30T04:54:22.758Z,31.80
2023-11-30T04:56:50.405Z,33.95
2023-11-30T04:59:17.547Z,31.05
2023-11-30T05:01:44.793Z,29.98
2023-11-30T05:04:11.974Z,30.23
2023-11-30T05:06:42.192Z,31.17
2023-11-30T05:09:12.656Z,31.10
2023-11-30T05:11:39.852Z,31.63
2023-11-30T05:14:06.725Z,30.23
2023-11-30T05:16:33.793Z,30.90
2023-11-30T05:19:09.383Z,27.80
2023-11-30T05:21:36.549Z,28.02
2023-11-30T05:24:03.750Z,30.67
2023-11-30T05:26:30.825Z,31.70
2023-11-30T05:28:58.086Z,32.28
2023-11-30T05:31:34.836Z,30.10
2023-11-30T05:34:03.783Z,34.80
2023-11-30T05:36:30.997Z,32.60
2023-11-30T05:38:58.259Z,32.25
2023-11-30T05:41:25.755Z,31.05
2023-11-30T05:43:52.642Z,30.13
2023-11-30T05:46:26.012Z,32.15
2023-11-30T05:48:56.501Z,30.27
2023-11-30T05:51:23.508Z,30.20
2023-11-30T05:53:50.563Z,31.80
2023-11-30T05:56:17.722Z,30.17
2023-11-30T05:58:45.109Z,30.52
2023-11-30T06:01:12.876Z,27.77
2023-11-30T06:03:40.302Z,28.40
2023-11-30T06:06:12.070Z,25.77
2023-11-30T06:08:39.059Z,25.35
2023-11-30T06:11:06.427Z,26.58
2023-11-30T06:13:34.303Z,25.77
2023-11-30T06:16:04.400Z,26.20
2023-11-30T06:18:31.380Z,28.80
2023-11-30T06:20:59.447Z,23.30
2023-11-30T06:23:27.915Z,24.58
2023-11-30T06:25:56.790Z,23.55
2023-11-30T06:28:23.658Z,25.23
2023-11-30T06:30:50.547Z,24.00
2023-11-30T06:33:17.730Z,25.20
2023-11-30T06:35:44.810Z,27.00
2023-11-30T06:38:12.023Z,28.40
2023-11-30T06:40:39.997Z,27.15
2023-11-30T06:43:08.938Z,27.10
2023-11-30T06:45:35.869Z,26.27
2023-11-30T06:48:02.868Z,24.88
2023-11-30T06:50:29.938Z,26.90
2023-11-30T06:52:56.856Z,24.52
2023-11-30T06:55:23.879Z,23.90
2023-11-30T06:57:53.797Z,23.30
2023-11-30T07:00:23.208Z,21.73
2023-11-30T07:02:50.502Z,20.63
2023-11-30T07:05:20.210Z,22.58
2023-11-30T07:07:50.272Z,24.38
2023-11-30T07:10:17.395Z,22.90
2023-11-30T07:12:44.596Z,18.77
2023-11-30T07:15:11.714Z,22.45
2023-11-30T07:17:39.058Z,21.30
2023-11-30T07:20:08.493Z,20.77
2023-11-30T07:22:36.185Z,22.58
2023-11-30T07:25:05.663Z,21.55
2023-11-30T07:27:36.592Z,19.13
2023-11-30T07:30:09.461Z,18.17
2023-11-30T07:32:36.665Z,17.60
2023-11-30T07:35:08.500Z,15.63
2023-11-30T07:37:36.212Z,15.57
2023-11-30T07:40:08.454Z,16.10
2023-11-30T07:42:37.754Z,15.00
2023-11-30T07:45:07.324Z,14.35
2023-11-30T07:47:34.652Z,15.60
2023-11-30T07:50:02.031Z,15.27
2023-11-30T07:52:29.130Z,14.15
2023-11-30T07:54:56.518Z,14.45
2023-11-30T07:57:23.674Z,13.77
2023-11-30T07:59:56.251Z,14.48
2023-11-30T08:04:50.651Z,14.50
2023-11-30T08:07:19.240Z,14.65
2023-11-30T08:09:46.336Z,14.20
2023-11-30T08:12:14.069Z,13.52
2023-11-30T08:14:41.648Z,13.57
2023-11-30T08:17:08.802Z,14.50
2023-11-30T08:19:35.864Z,12.90
2023-11-30T08:22:02.965Z,13.95
2023-11-30T08:24:33.770Z,13.10
2023-11-30T08:27:01.573Z,11.87
2023-11-30T08:29:28.837Z,13.23
2023-11-30T08:31:56.084Z,14.25
2023-11-30T08:34:23.162Z,13.95
2023-11-30T08:36:53.592Z,13.05
2023-11-30T08:39:25.558Z,13.20
2023-11-30T08:41:52.758Z,12.18
2023-11-30T08:44:19.958Z,12.85
2023-11-30T08:46:47.247Z,12.82
2023-11-30T08:49:17.440Z,13.20
2023-11-30T08:51:45.923Z,12.30
2023-11-30T08:54:13.461Z,13.07
2023-11-30T08:56:40.551Z,12.55
2023-11-30T08:59:07.721Z,12.55
2023-11-30T09:01:35.368Z,12.32
2023-11-30T09:04:06.670Z,13.55
2023-11-30T09:06:39.845Z,13.32
2023-11-30T09:09:08.188Z,12.63
2023-11-30T09:11:37.534Z,13.75
2023-11-30T09:14:04.605Z,13.63
2023-11-30T09:16:31.593Z,14.73
2023-11-30T09:18:58.509Z,13.98
2023-11-30T09:21:27.155Z,14.75
2023-11-30T09:23:58.718Z,13.98
2023-11-30T09:26:29.296Z,15.25
2023-11-30T09:28:56.385Z,16.27
2023-11-30T09:31:23.393Z,14.38
2023-11-30T09:33:52.843Z,13.98
2023-11-30T09:36:19.863Z,13.40
2023-11-30T09:38:47.057Z,14.10
2023-11-30T09:44:00.142Z,17.20
2023-11-30T09:46:30.014Z,16.50
2023-11-30T09:48:59.461Z,16.23
2023-11-30T09:51:33.352Z,17.38
2023-11-30T09:54:00.894Z,16.63
2023-11-30T09:56:29.318Z,18.00
2023-11-30T09:58:57.275Z,18.08
2023-11-30T10:01:24.504Z,18.40
2023-11-30T10:03:53.233Z,16.65
2023-11-30T10:06:20.692Z,18.95
2023-11-30T10:08:47.983Z,15.95
2023-11-30T10:11:14.905Z,16.52
2023-11-30T10:13:42.015Z,14.13
2023-11-30T10:16:12.439Z,14.82
2023-11-30T10:18:39.658Z,14.60
2023-11-30T10:21:09.053Z,15.35
2023-11-30T10:23:36.560Z,13.70
2023-11-30T10:26:03.942Z,14.02
2023-11-30T10:28:31.580Z,15.32
2023-11-30T10:31:00.767Z,14.45
2023-11-30T10:33:29.761Z,14.68
2023-11-30T10:36:02.384Z,13.10
2023-11-30T10:41:18.770Z,12.35
2023-11-30T10:43:50.095Z,11.95
2023-11-30T10:46:17.821Z,11.90
2023-11-30T10:48:45.269Z,11.57
2023-11-30T10:51:13.482Z,11.13
2023-11-30T10:54:06.148Z,11.65
2023-11-30T10:56:34.422Z,11.60
2023-11-30T10:59:01.466Z,11.50
2023-11-30T11:01:28.789Z,12.20
2023-11-30T11:03:58.733Z,12.50
2023-11-30T11:06:40.298Z,12.07
2023-11-30T11:09:09.035Z,11.77
2023-11-30T11:11:41.373Z,12.60
2023-11-30T11:14:08.718Z,12.68
2023-11-30T11:16:46.146Z,12.65
2023-11-30T11:19:15.554Z,12.55
2023-11-30T11:21:43.418Z,11.70
2023-11-30T11:24:10.692Z,13.27
2023-11-30T11:27:00.882Z,13.32
2023-11-30T11:29:38.610Z,11.85
2023-11-30T11:32:13.499Z,11.63
2023-11-30T11:34:40.473Z,12.13
2023-11-30T11:37:10.119Z,12.57
2023-11-30T11:39:38.167Z,12.27
2023-11-30T11:42:08.261Z,12.45
2023-11-30T11:44:35.608Z,13.02
2023-11-30T11:47:02.643Z,12.50
2023-11-30T11:49:37.636Z,12.05
2023-11-30T11:52:05.025Z,12.10
2023-11-30T11:54:32.096Z,13.88
2023-11-30T11:56:59.320Z,11.88
2023-11-30T11:59:27.945Z,11.55
2023-11-30T12:01:59.357Z,11.70
2023-11-30T12:04:38.220Z,12.60
2023-11-30T12:07:16.852Z,11.43
2023-11-30T12:09:55.532Z,11.43
2023-11-30T12:12:33.546Z,11.05
2023-11-30T12:15:00.971Z,12.75
2023-11-30T12:17:27.960Z,12.07
2023-11-30T12:19:57.580Z,13.35
2023-11-30T12:22:25.052Z,14.25
2023-11-30T12:24:52.529Z,12.95
2023-11-30T12:27:19.746Z,13.02
2023-11-30T12:29:47.042Z,12.48
2023-11-30T12:32:14.529Z,13.18
2023-11-30T12:34:41.595Z,13.85
2023-11-30T12:37:10.999Z,13.73
2023-11-30T12:39:41.781Z,15.35
2023-11-30T12:42:09.220Z,12.98
2023-11-30T12:44:39.045Z,13.95
2023-11-30T12:47:06.229Z,13.90
2023-11-30T12:49:35.152Z,15.25
2023-11-30T12:52:03.441Z,12.80
2023-11-30T12:54:30.761Z,14.48
2023-11-30T12:57:00.853Z,15.00
2023-11-30T12:59:28.401Z,12.60
2023-11-30T13:01:56.409Z,12.88
2023-11-30T13:04:24.274Z,14.10
2023-11-30T13:06:51.904Z,14.35
2023-11-30T13:09:19.271Z,14.65
2023-11-30T13:11:49.307Z,12.80
2023-11-30T13:14:17.062Z,13.48
2023-11-30T13:16:44.464Z,13.55
2023-11-30T13:19:16.620Z,13.05
2023-11-30T13:21:43.844Z,12.63
2023-11-30T13:24:18.993Z,13.32
2023-11-30T13:26:48.323Z,13.90
2023-11-30T13:29:18.742Z,12.27
2023-11-30T13:31:46.086Z,12.57
2023-11-30T13:34:13.505Z,11.98
2023-11-30T13:36:41.002Z,13.43
2023-11-30T13:39:08.167Z,13.50
2023-11-30T13:41:35.209Z,12.55
2023-11-30T13:44:06.498Z,11.80
2023-11-30T13:46:33.877Z,13.13
2023-11-30T13:49:00.950Z,12.77
2023-11-30T13:51:28.018Z,14.05
2023-11-30T13:53:55.511Z,13.23
2023-11-30T13:56:23.081Z,12.93
2023-11-30T13:58:51.001Z,14.23
2023-11-30T14:01:18.637Z,15.02
2023-11-30T14:03:45.825Z,14.60
2023-11-30T14:06:14.081Z,15.82
2023-11-30T14:08:41.531Z,15.88
2023-11-30T14:11:18.508Z,17.30
2023-11-30T14:13:46.482Z,16.85
2023-11-30T14:16:16.044Z,15.90
2023-11-30T14:18:43.374Z,16.20
2023-11-30T14:21:10.515Z,16.27
2023-11-30T14:23:41.558Z,16.98
2023-11-30T14:26:08.552Z,17.30
2023-11-30T14:28:35.536Z,17.27
2023-11-30T14:31:03.000Z,17.23
2023-11-30T14:33:33.245Z,15.55
2023-11-30T14:36:00.526Z,16.85
2023-11-30T14:38:27.581Z,15.77
2023-11-30T14:40:54.558Z,16.38
2023-11-30T14:43:29.136Z,16.60
2023-11-30T14:45:56.274Z,15.73
2023-11-30T14:48:25.299Z,16.85
2023-11-30T14:50:53.081Z,16.73
2023-11-30T14:53:20.229Z,17.70
2023-11-30T14:55:47.272Z,17.85
2023-11-30T14:58:16.717Z,16.85
2023-11-30T15:00:43.749Z,16.13
2023-11-30T15:03:12.568Z,14.95
2023-11-30T15:05:40.244Z,14.68
2023-11-30T15:08:07.904Z,15.07
2023-11-30T15:10:34.830Z,15.07
2023-11-30T15:13:01.903Z,15.73
2023-11-30T15:15:28.996Z,17.60
2023-11-30T15:17:56.254Z,17.92
2023-11-30T15:20:24.376Z,16.77
2023-11-30T15:22:51.695Z,18.08
2023-11-30T15:25:22.293Z,19.05
2023-11-30T15:27:50.727Z,17.52
2023-11-30T15:30:18.710Z,17.25
2023-11-30T15:32:46.023Z,16.13
2023-11-30T15:35:13.282Z,15.57
2023-11-30T15:37:40.342Z,16.08
2023-11-30T15:40:13.941Z,15.70
2023-11-30T15:42:41.012Z,17.73
2023-11-30T15:45:12.841Z,18.20
2023-11-30T15:47:41.236Z,20.48
2023-11-30T15:50:08.984Z,19.60
2023-11-30T15:52:36.183Z,20.98
2023-11-30T15:55:03.532Z,20.15
2023-11-30T15:57:30.606Z,20.85
2023-11-30T15:59:57.800Z,20.50
2023-11-30T16:02:24.851Z,20.13
2023-11-30T16:04:52.496Z,21.33
2023-11-30T16:07:19.587Z,18.33
2023-11-30T16:09:49.457Z,19.60
2023-11-30T16:12:19.204Z,21.98
2023-11-30T16:14:46.582Z,21.58
2023-11-30T16:17:13.989Z,23.23
2023-11-30T16:19:41.102Z,21.83
2023-11-30T16:22:11.576Z,21.65
2023-11-30T16:24:38.713Z,25.73
2023-11-30T16:27:06.549Z,25.63
2023-11-30T16:29:34.267Z,23.60
2023-11-30T16:32:01.462Z,24.52
2023-11-30T16:34:32.502Z,22.65
2023-11-30T16:37:00.061Z,22.75
2023-11-30T16:39:28.842Z,23.48
2023-11-30T16:41:57.411Z,26.60
2023-11-30T16:44:24.800Z,23.52
2023-11-30T16:46:51.958Z,25.95
2023-11-30T16:49:19.134Z,23.05
2023-11-30T16:51:49.393Z,21.42
2023-11-30T16:54:24.110Z,22.02
2023-11-30T16:56:54.314Z,22.13
2023-11-30T16:59:25.420Z,23.67
2023-11-30T17:01:53.215Z,23.10
2023-11-30T17:04:20.505Z,23.48
2023-11-30T17:06:49.751Z,21.92
2023-11-30T17:09:16.820Z,21.13
2023-11-30T17:11:47.354Z,21.92
2023-11-30T17:14:17.534Z,23.48
2023-11-30T17:16:45.774Z,23.10
2023-11-30T17:19:15.666Z,22.95
2023-11-30T17:21:45.844Z,23.33
2023-11-30T17:24:14.319Z,22.87
2023-11-30T17:26:41.340Z,22.77
2023-11-30T17:29:08.700Z,24.30
2023-11-30T17:31:36.408Z,23.92
2023-11-30T17:34:03.891Z,24.20
2023-11-30T17:36:31.523Z,23.15
2023-11-30T17:39:00.584Z,24.33
2023-11-30T17:41:27.973Z,24.70
2023-11-30T17:43:56.362Z,23.65
2023-11-30T17:46:23.590Z,25.40
2023-11-30T17:48:51.339Z,25.30
2023-11-30T17:51:19.616Z,23.80
2023-11-30T17:53:47.903Z,23.55
2023-11-30T17:56:19.808Z,25.10
2023-11-30T17:58:46.976Z,24.35
2023-11-30T18:01:17.501Z,23.80
2023-11-30T18:03:44.714Z,25.00
2023-11-30T18:06:13.389Z,23.35
2023-11-30T18:08:41.493Z,23.95
2023-11-30T18:11:12.038Z,26.27
2023-11-30T18:13:46.976Z,24.40
2023-11-30T18:16:14.557Z,27.85
2023-11-30T18:18:41.569Z,26.38
2023-11-30T18:21:09.026Z,27.65
2023-11-30T18:23:37.358Z,25.73
2023-11-30T18:26:05.568Z,26.92
2023-11-30T18:28:42.294Z,25.60
2023-11-30T18:31:16.766Z,27.77
2023-11-30T18:33:52.294Z,28.88
2023-11-30T18:36:19.866Z,26.33
2023-11-30T18:38:51.011Z,28.65
2023-11-30T18:41:24.092Z,30.13
2023-11-30T18:43:51.451Z,23.90
2023-11-30T18:46:19.325Z,27.88
2023-11-30T18:48:47.124Z,27.42
2023-11-30T18:51:14.729Z,29.50
2023-11-30T18:53:42.641Z,30.08
2023-11-30T18:56:10.511Z,28.98
2023-11-30T18:58:37.995Z,29.98
2023-11-30T19:01:05.732Z,27.88
2023-11-30T19:03:33.106Z,24.98
2023-11-30T19:06:00.275Z,29.20
2023-11-30T19:08:30.742Z,30.30
2023-11-30T19:10:58.891Z,30.85
2023-11-30T19:13:26.033Z,31.20
2023-11-30T19:15:53.219Z,28.30
2023-11-30T19:18:21.692Z,30.65
2023-11-30T19:20:48.679Z,28.58
2023-11-30T19:23:16.089Z,28.77
2023-11-30T19:25:44.847Z,28.13
2023-11-30T19:28:24.346Z,26.55
2023-11-30T19:30:54.606Z,27.17
2023-11-30T19:33:22.220Z,26.55
2023-11-30T19:35:49.494Z,25.23
2023-11-30T19:38:19.822Z,28.98
2023-11-30T19:40:59.462Z,30.60
2023-11-30T19:43:30.698Z,30.33
2023-11-30T19:46:03.283Z,28.08
2023-11-30T19:48:32.412Z,28.52
2023-11-30T19:50:59.519Z,28.80
2023-11-30T19:53:30.613Z,29.65
2023-11-30T19:56:02.180Z,26.45
2023-11-30T19:58:36.580Z,28.05
2023-11-30T20:01:05.487Z,30.73
2023-11-30T20:03:32.764Z,29.55
2023-11-30T20:05:59.851Z,28.50
2023-11-30T20:08:27.014Z,30.33
2023-11-30T20:10:55.180Z,32.05
2023-11-30T20:13:22.589Z,29.90
2023-11-30T20:15:49.543Z,31.35
2023-11-30T20:18:18.673Z,29.70
2023-11-30T20:20:45.928Z,27.52
2023-11-30T20:23:21.992Z,26.95
2023-11-30T20:26:11.411Z,28.42
2023-11-30T20:28:47.360Z,28.65
2023-11-30T20:31:15.941Z,27.63
2023-11-30T20:33:43.324Z,27.63
2023-11-30T20:36:10.569Z,28.73
2023-11-30T20:38:40.639Z,29.48
2023-11-30T20:41:17.998Z,28.70
2023-11-30T20:43:45.463Z,29.13
2023-11-30T20:46:19.372Z,29.27
2023-11-30T20:48:47.852Z,30.27
2023-11-30T20:51:20.022Z,26.45
2023-11-30T20:53:49.360Z,25.70
2023-11-30T20:56:16.282Z,27.00
2023-11-30T20:58:48.291Z,27.58
2023-11-30T21:01:18.490Z,26.95
2023-11-30T21:03:46.826Z,28.33
2023-11-30T21:06:18.380Z,28.10
2023-11-30T21:08:48.826Z,27.88
2023-11-30T21:11:16.073Z,25.88
2023-11-30T21:13:45.292Z,25.17
2023-11-30T21:16:17.667Z,24.83
2023-11-30T21:18:49.416Z,23.25
2023-11-30T21:21:17.922Z,25.57
2023-11-30T21:23:51.510Z,25.10
2023-11-30T21:26:18.948Z,26.33
2023-11-30T21:28:47.065Z,26.60
2023-11-30T21:31:19.066Z,26.58
2023-11-30T21:33:48.827Z,26.75
2023-11-30T21:36:17.122Z,26.25
2023-11-30T21:38:45.917Z,26.58
2023-11-30T21:41:17.067Z,27.92
2023-11-30T21:43:52.235Z,27.05
2023-11-30T21:46:24.488Z,28.88
2023-11-30T21:48:53.216Z,28.40
2023-11-30T21:51:30.333Z,27.38
2023-11-30T21:53:57.470Z,29.23
2023-11-30T21:56:24.573Z,28.73
2023-11-30T21:58:52.252Z,30.40
2023-11-30T22:01:19.891Z,28.40
2023-11-30T22:03:47.069Z,27.92
2023-11-30T22:06:14.504Z,27.85
2023-11-30T22:08:41.484Z,27.00
2023-11-30T22:11:08.686Z,28.75
2023-11-30T22:13:36.884Z,31.35
2023-11-30T22:16:11.479Z,32.85
2023-11-30T22:18:40.249Z,31.67
2023-11-30T22:21:07.922Z,31.00
2023-11-30T22:23:40.643Z,33.33
2023-11-30T22:26:09.835Z,30.02
2023-11-30T22:28:37.614Z,30.77
2023-11-30T22:31:06.140Z,30.90
2023-11-30T22:33:35.158Z,31.33
2023-11-30T22:36:02.254Z,30.23
2023-11-30T22:38:32.875Z,30.05
2023-11-30T22:41:03.857Z,30.05
2023-11-30T22:43:34.257Z,30.02
2023-11-30T22:46:01.614Z,29.63
2023-11-30T22:48:33.898Z,28.75
2023-11-30T22:51:01.086Z,29.63
2023-11-30T22:53:28.127Z,29.98
2023-11-30T22:55:55.940Z,28.80
2023-11-30T22:58:23.664Z,28.67
2023-11-30T23:00:53.377Z,31.05
2023-11-30T23:03:34.021Z,31.73
2023-11-30T23:06:02.471Z,25.98
2023-11-30T23:08:29.865Z,29.67
2023-11-30T23:10:57.260Z,29.45
2023-11-30T23:13:24.566Z,29.13
2023-11-30T23:15:51.818Z,28.73
2023-11-30T23:18:22.277Z,29.20
2023-11-30T23:20:51.217Z,29.77
2023-11-30T23:23:25.838Z,29.77
2023-11-30T23:25:53.547Z,30.33
2023-11-30T23:28:23.471Z,30.42
2023-11-30T23:30:51.164Z,28.95
2023-11-30T23:33:18.260Z,30.83
2023-11-30T23:35:47.463Z,29.83
2023-11-30T23:38:15.696Z,28.60
2023-11-30T23:40:45.092Z,27.98
2023-11-30T23:43:12.638Z,30.13
2023-11-30T23:45:39.947Z,30.92
2023-11-30T23:48:07.246Z,29.92
2023-11-30T23:50:36.172Z,30.33
2023-11-30T23:53:03.301Z,29.10
2023-11-30T23:55:30.372Z,28.85
2023-11-30T23:57:57.972Z,29.35
